Time;durP1;ratioP1;P1;durP2;ratioP2;P2;SDS_P1;SDS_P2;PMS_P1;PMS_P2;Temp;Humidity;BMP_temperature;BMP_pressure;BME280_temperature;BME280_humidity;BME280_pressure;Samples;Min_cycle;Max_cycle;Signal;HPM_P1;HPM_P2
2023/07/11 00:00:28;;;;;;;;;;;;;;;32.39;31.61;98152.00;5091259;28;19981;-86
2023/07/11 00:02:54;;;;;;;;;;;;;;;33.02;31.56;98144.84;5082499;28;20316;-84
2023/07/11 00:05:20;;;;;;;;;;;;;;;33.20;30.94;98153.91;5091420;28;19916;-86
2023/07/11 00:07:46;;;;;;;;;;;;;;;32.96;31.51;98158.13;5090874;28;20407;-86
2023/07/11 00:10:14;;;;;;;;;;;;;;;33.05;31.22;98156.00;5077130;28;19925;-86
2023/07/11 00:12:40;;;;;;;;;;;;;;;33.19;31.09;98148.69;5071875;28;19927;-85
2023/07/11 00:15:09;;;;;;;;;;;;;;;33.61;30.25;98148.28;5082276;28;20334;-86
2023/07/11 00:17:35;;;;;;;;;;;;;;;33.74;30.29;98148.72;5090748;28;19927;-86
2023/07/11 00:20:02;;;;;;;;;;;;;;;33.96;29.46;98149.75;5088451;28;19920;-86
2023/07/11 00:22:29;;;;;;;;;;;;;;;34.22;29.23;98149.03;5093381;28;19916;-85
2023/07/11 00:24:55;;;;;;;;;;;;;;;33.77;29.64;98131.41;5092741;28;19927;-86
2023/07/11 00:27:23;;;;;;;;;;;;;;;33.77;29.86;98136.34;5091612;28;20333;-86
2023/07/11 00:29:50;;;;;;;;;;;;;;;33.17;30.63;98146.34;5085557;28;19921;-86
2023/07/11 00:32:16;;;;;;;;;;;;;;;33.00;31.14;98144.50;5091766;28;20023;-84
2023/07/11 00:34:42;;;;;;;;;;;;;;;32.90;30.99;98143.84;5088306;28;19935;-85
2023/07/11 00:37:08;;;;;;;;;;;;;;;32.31;32.19;98134.53;5068160;28;19920;-86
2023/07/11 00:39:35;;;;;;;;;;;;;;;32.55;31.74;98143.00;5088275;28;19981;-85
2023/07/11 00:42:02;;;;;;;;;;;;;;;32.58;31.89;98139.94;5093127;28;20014;-85
2023/07/11 00:44:28;;;;;;;;;;;;;;;32.48;31.95;98141.31;5095657;28;19973;-85
2023/07/11 00:46:54;;;;;;;;;;;;;;;32.44;32.08;98151.31;5084749;28;19927;-85
2023/07/11 00:49:21;;;;;;;;;;;;;;;32.30;32.59;98149.25;5088137;28;20357;-86
2023/07/11 00:51:57;;;;;;;;;;;;;;;32.24;32.76;98140.59;5077687;28;19959;-86
2023/07/11 00:54:26;;;;;;;;;;;;;;;32.44;32.00;98154.16;5075290;28;19920;-86
2023/07/11 00:56:53;;;;;;;;;;;;;;;32.80;31.60;98152.97;5081493;28;19923;-86
2023/07/11 00:59:20;;;;;;;;;;;;;;;32.67;31.53;98156.13;5084583;28;19921;-85
2023/07/11 01:02:02;;;;;;;;;;;;;;;32.82;31.46;98156.88;5079057;28;19924;-85
2023/07/11 01:04:29;;;;;;;;;;;;;;;32.70;31.82;98153.06;5087238;28;19916;-86
2023/07/11 01:06:55;;;;;;;;;;;;;;;33.25;31.04;98161.75;5090946;28;19962;-86
2023/07/11 01:09:21;;;;;;;;;;;;;;;33.38;30.65;98162.19;5076798;28;20055;-86
2023/07/11 01:11:53;;;;;;;;;;;;;;;33.76;30.40;98143.28;5086409;28;19958;-86
2023/07/11 01:14:19;;;;;;;;;;;;;;;34.17;29.72;98138.38;5085872;28;19916;-86
2023/07/11 01:16:45;;;;;;;;;;;;;;;34.11;30.00;98146.84;5077411;28;19928;-84
2023/07/11 01:19:11;;;;;;;;;;;;;;;34.17;29.77;98150.53;5077234;28;19946;-86
2023/07/11 01:21:37;;;;;;;;;;;;;;;33.74;30.08;98155.19;5095076;28;19920;-86
2023/07/11 01:24:03;;;;;;;;;;;;;;;33.80;30.66;98152.41;5090972;28;19920;-86
2023/07/11 01:26:29;;;;;;;;;;;;;;;33.94;30.07;98145.84;5095495;28;19920;-86
2023/07/11 01:28:56;;;;;;;;;;;;;;;33.92;30.19;98148.41;5089052;28;20368;-85
2023/07/11 01:31:22;;;;;;;;;;;;;;;33.96;30.08;98149.75;5082336;28;19966;-86
2023/07/11 01:33:48;;;;;;;;;;;;;;;33.89;30.56;98143.69;5077931;28;20276;-85
2023/07/11 01:36:14;;;;;;;;;;;;;;;34.18;29.67;98154.97;5086103;28;19942;-86
2023/07/11 01:38:40;;;;;;;;;;;;;;;33.88;30.40;98142.94;5079720;28;20350;-86
2023/07/11 01:41:06;;;;;;;;;;;;;;;33.15;31.25;98143.22;5075575;28;20281;-85
2023/07/11 01:43:32;;;;;;;;;;;;;;;33.16;31.74;98152.56;5080279;28;19986;-86
2023/07/11 01:45:58;;;;;;;;;;;;;;;33.69;30.80;98152.28;5076053;28;19924;-85
2023/07/11 01:48:24;;;;;;;;;;;;;;;32.81;32.32;98146.81;5094086;28;19964;-85
2023/07/11 01:50:51;;;;;;;;;;;;;;;33.03;32.24;98157.75;5084728;28;19924;-86
2023/07/11 01:53:17;;;;;;;;;;;;;;;33.19;31.71;98168.63;5093005;28;20329;-85
2023/07/11 01:55:43;;;;;;;;;;;;;;;32.81;32.93;98163.88;5092756;28;20292;-86
2023/07/11 01:58:09;;;;;;;;;;;;;;;33.12;32.46;98158.44;5094622;28;20364;-85
2023/07/11 02:00:35;;;;;;;;;;;;;;;33.32;31.78;98149.94;5094621;28;19920;-86
2023/07/11 02:03:01;;;;;;;;;;;;;;;32.82;32.84;98154.03;5091580;28;19920;-84
2023/07/11 02:05:27;;;;;;;;;;;;;;;32.09;34.31;98154.78;5094593;28;20025;-85
2023/07/11 02:07:53;;;;;;;;;;;;;;;32.69;32.67;98160.06;5093627;28;19916;-86
2023/07/11 02:10:19;;;;;;;;;;;;;;;33.58;31.89;98164.31;5075695;28;19950;-85
2023/07/11 02:12:45;;;;;;;;;;;;;;;32.70;32.85;98169.34;5085262;28;19920;-85
2023/07/11 02:15:11;;;;;;;;;;;;;;;32.65;33.14;98167.22;5075518;28;19916;-84
2023/07/11 02:17:38;;;;;;;;;;;;;;;33.07;32.36;98170.50;5094416;28;19920;-85
2023/07/11 02:20:04;;;;;;;;;;;;;;;31.89;34.58;98177.34;5094065;28;19922;-85
2023/07/11 02:22:30;;;;;;;;;;;;;;;31.93;34.29;98165.78;5094766;28;20281;-85
2023/07/11 02:24:56;;;;;;;;;;;;;;;33.10;32.64;98172.38;5089402;28;19980;-86
2023/07/11 02:27:22;;;;;;;;;;;;;;;32.97;32.40;98176.78;5087359;28;19925;-86
2023/07/11 02:29:48;;;;;;;;;;;;;;;32.79;33.00;98174.16;5091015;28;20042;-85
2023/07/11 02:32:14;;;;;;;;;;;;;;;32.66;32.97;98180.16;5081454;28;19935;-86
2023/07/11 02:34:40;;;;;;;;;;;;;;;32.17;33.87;98186.44;5085529;28;20295;-85
2023/07/11 02:37:06;;;;;;;;;;;;;;;32.21;34.12;98186.28;5078836;28;19920;-86
2023/07/11 02:39:32;;;;;;;;;;;;;;;32.31;33.82;98190.59;5073916;28;19928;-85
2023/07/11 02:41:58;;;;;;;;;;;;;;;32.55;33.52;98191.34;5078735;28;19928;-85
2023/07/11 02:44:24;;;;;;;;;;;;;;;32.58;33.01;98193.97;5086342;28;20035;-84
2023/07/11 02:46:50;;;;;;;;;;;;;;;31.94;34.06;98202.25;5076668;28;19931;-85
2023/07/11 02:49:18;;;;;;;;;;;;;;;32.10;33.98;98198.19;5078276;28;19924;-84
2023/07/11 02:51:44;;;;;;;;;;;;;;;32.24;34.00;98199.50;5082698;28;19924;-86
2023/07/11 02:54:10;;;;;;;;;;;;;;;32.45;33.01;98198.34;5074720;28;19916;-86
2023/07/11 02:56:37;;;;;;;;;;;;;;;32.55;33.38;98202.69;5076769;28;20299;-85
2023/07/11 02:59:03;;;;;;;;;;;;;;;33.05;32.48;98200.75;5084245;28;20322;-86
2023/07/11 03:01:31;;;;;;;;;;;;;;;33.03;32.11;98198.38;5076036;28;19928;-86
2023/07/11 03:03:57;;;;;;;;;;;;;;;32.95;32.51;98196.41;5079067;28;19917;-86
2023/07/11 03:06:23;;;;;;;;;;;;;;;31.94;33.64;98190.88;5087094;28;20283;-86
2023/07/11 03:08:49;;;;;;;;;;;;;;;32.40;33.25;98194.13;5085023;28;20406;-85
2023/07/11 03:11:15;;;;;;;;;;;;;;;32.05;33.38;98201.69;5078651;28;19924;-85
2023/07/11 03:13:42;;;;;;;;;;;;;;;32.27;33.57;98204.22;5077226;28;19956;-85
2023/07/11 03:16:08;;;;;;;;;;;;;;;31.57;34.36;98202.97;5075621;28;20045;-83
2023/07/11 03:18:34;;;;;;;;;;;;;;;31.62;34.53;98197.44;5075614;28;20004;-82
2023/07/11 03:21:01;;;;;;;;;;;;;;;31.50;34.86;98200.50;5082990;28;19928;-86
2023/07/11 03:23:27;;;;;;;;;;;;;;;31.07;35.37;98213.13;5093615;28;20018;-84
2023/07/11 03:25:54;;;;;;;;;;;;;;;31.15;35.34;98217.19;5085199;28;19921;-85
2023/07/11 03:28:20;;;;;;;;;;;;;;;31.75;34.27;98217.84;5073124;28;19927;-85
2023/07/11 03:30:46;;;;;;;;;;;;;;;31.26;35.03;98208.94;5080790;28;19920;-84
2023/07/11 03:33:12;;;;;;;;;;;;;;;31.87;34.15;98205.44;5083863;28;19927;-85
2023/07/11 03:35:38;;;;;;;;;;;;;;;31.72;34.23;98204.59;5073329;28;19920;-85
2023/07/11 03:38:04;;;;;;;;;;;;;;;31.46;35.13;98214.84;5078349;28;19920;-86
2023/07/11 03:40:30;;;;;;;;;;;;;;;32.29;33.21;98207.34;5070645;28;19977;-86
2023/07/11 03:42:57;;;;;;;;;;;;;;;31.16;35.10;98204.56;5076898;28;20411;-84
2023/07/11 03:45:23;;;;;;;;;;;;;;;30.93;35.31;98206.09;5080377;28;19926;-85
2023/07/11 03:47:49;;;;;;;;;;;;;;;31.35;35.06;98212.53;5079438;28;19920;-85
2023/07/11 03:50:15;;;;;;;;;;;;;;;31.65;34.50;98207.03;5092111;28;20318;-86
2023/07/11 03:52:41;;;;;;;;;;;;;;;32.28;34.10;98208.63;5092910;28;19920;-86
2023/07/11 03:55:08;;;;;;;;;;;;;;;32.60;33.26;98213.41;5093026;28;19916;-85
2023/07/11 03:57:34;;;;;;;;;;;;;;;32.90;32.16;98212.13;5087005;28;19927;-83
2023/07/11 04:00:00;;;;;;;;;;;;;;;32.44;32.92;98208.16;5092540;28;19924;-85
2023/07/11 04:02:26;;;;;;;;;;;;;;;32.99;32.56;98214.06;5082161;28;19972;-87
2023/07/11 04:04:52;;;;;;;;;;;;;;;32.92;32.40;98206.72;5074871;28;19928;-86
2023/07/11 04:07:18;;;;;;;;;;;;;;;32.78;32.30;98210.34;5075224;28;19921;-85
2023/07/11 04:09:44;;;;;;;;;;;;;;;32.79;32.34;98211.94;5089680;28;19951;-85
2023/07/11 04:12:10;;;;;;;;;;;;;;;32.37;32.87;98209.31;5090626;28;19931;-86
2023/07/11 04:14:36;;;;;;;;;;;;;;;32.08;33.59;98214.94;5081107;28;20084;-85
2023/07/11 04:17:03;;;;;;;;;;;;;;;31.99;34.10;98212.97;5092297;28;19924;-86
2023/07/11 04:19:29;;;;;;;;;;;;;;;31.44;34.96;98211.72;5096510;28;19920;-86
2023/07/11 04:21:55;;;;;;;;;;;;;;;31.37;34.69;98212.03;5078197;28;19946;-86
2023/07/11 04:24:21;;;;;;;;;;;;;;;31.94;33.92;98210.75;5072026;28;20011;-87
2023/07/11 04:26:47;;;;;;;;;;;;;;;31.36;34.94;98216.16;5095873;28;19950;-87
2023/07/11 04:29:13;;;;;;;;;;;;;;;32.10;33.35;98212.41;5076708;28;19946;-83
2023/07/11 04:31:39;;;;;;;;;;;;;;;31.96;33.95;98221.63;5084151;28;19946;-86
2023/07/11 04:34:05;;;;;;;;;;;;;;;32.36;33.22;98219.13;5088981;28;20015;-87
2023/07/11 04:36:31;;;;;;;;;;;;;;;31.46;34.44;98222.59;5079108;28;19921;-86
2023/07/11 04:38:57;;;;;;;;;;;;;;;30.69;36.06;98231.47;5076515;28;19929;-83
2023/07/11 04:41:23;;;;;;;;;;;;;;;31.34;35.04;98233.66;5083712;28;20286;-83
2023/07/11 04:43:49;;;;;;;;;;;;;;;31.50;34.64;98226.84;5086620;28;20026;-86
2023/07/11 04:46:15;;;;;;;;;;;;;;;31.68;34.27;98229.56;5082741;28;20406;-85
2023/07/11 04:48:42;;;;;;;;;;;;;;;31.70;33.93;98218.50;5086883;28;20308;-86
2023/07/11 04:51:08;;;;;;;;;;;;;;;31.52;34.56;98238.47;5095715;28;20367;-85
2023/07/11 04:53:34;;;;;;;;;;;;;;;31.79;33.67;98232.63;5084838;28;19970;-88
2023/07/11 04:56:01;;;;;;;;;;;;;;;31.90;33.70;98224.34;5085566;28;20388;-88
2023/07/11 04:58:29;;;;;;;;;;;;;;;31.88;33.43;98237.47;5093373;28;19993;-86
2023/07/11 05:00:58;;;;;;;;;;;;;;;32.16;33.28;98238.09;5083100;28;20273;-90
2023/07/11 05:03:24;;;;;;;;;;;;;;;32.39;33.00;98235.22;5074761;28;19924;-86
2023/07/11 05:05:50;;;;;;;;;;;;;;;32.43;32.59;98244.31;5063684;28;19928;-86
2023/07/11 05:08:16;;;;;;;;;;;;;;;32.71;32.61;98250.56;5095526;28;19924;-87
2023/07/11 05:11:13;;;;;;;;;;;;;;;32.35;33.05;98245.19;5088199;28;19978;-87
2023/07/11 05:13:39;;;;;;;;;;;;;;;32.16;33.17;98243.78;5079035;28;19922;-88
2023/07/11 05:16:10;;;;;;;;;;;;;;;31.81;33.73;98252.03;5091034;28;19920;-87
2023/07/11 05:18:39;;;;;;;;;;;;;;;32.19;33.05;98239.94;5086367;28;19928;-85
2023/07/11 05:21:06;;;;;;;;;;;;;;;32.17;32.62;98251.00;5079141;28;19921;-85
2023/07/11 05:23:32;;;;;;;;;;;;;;;32.79;32.23;98248.13;5077286;28;19934;-87
2023/07/11 05:25:58;;;;;;;;;;;;;;;33.11;31.61;98253.63;5079999;28;20007;-87
2023/07/11 05:28:25;;;;;;;;;;;;;;;33.17;31.41;98256.56;5074223;28;20372;-86
2023/07/11 05:30:51;;;;;;;;;;;;;;;33.00;31.37;98256.22;5074732;28;19973;-87
2023/07/11 05:33:17;;;;;;;;;;;;;;;32.75;31.48;98257.63;5083445;28;19924;-85
2023/07/11 05:38:28;;;;;;;;;;;;;;;33.72;31.22;98250.97;5079882;28;20070;-87
2023/07/11 05:40:56;;;;;;;;;;;;;;;33.54;30.58;98254.06;5083021;28;19932;-85
2023/07/11 05:43:22;;;;;;;;;;;;;;;32.91;31.61;98256.34;5084966;28;19931;-85
2023/07/11 05:45:48;;;;;;;;;;;;;;;33.19;31.63;98254.78;5074384;28;19923;-85
2023/07/11 05:48:14;;;;;;;;;;;;;;;32.90;31.75;98259.69;5078303;28;19921;-86
2023/07/11 05:50:40;;;;;;;;;;;;;;;32.91;31.83;98262.03;5077770;28;19920;-86
2023/07/11 05:53:06;;;;;;;;;;;;;;;33.51;31.21;98261.50;5084920;28;20290;-86
2023/07/11 05:55:32;;;;;;;;;;;;;;;33.08;31.01;98253.81;5087806;28;19924;-88
2023/07/11 05:57:58;;;;;;;;;;;;;;;33.14;31.28;98257.56;5076381;28;19921;-85
2023/07/11 06:00:24;;;;;;;;;;;;;;;34.10;30.13;98256.41;5072354;28;20299;-88
2023/07/11 06:02:50;;;;;;;;;;;;;;;34.62;29.21;98265.88;5083241;28;19939;-86
2023/07/11 06:05:16;;;;;;;;;;;;;;;34.05;29.50;98269.31;5088957;28;19924;-85
2023/07/11 06:07:43;;;;;;;;;;;;;;;32.72;31.66;98267.13;5092211;28;20421;-86
2023/07/11 06:10:09;;;;;;;;;;;;;;;32.37;32.10;98269.00;5089315;28;19931;-86
2023/07/11 06:12:35;;;;;;;;;;;;;;;31.72;32.97;98286.16;5084577;28;20007;-85
2023/07/11 06:15:01;;;;;;;;;;;;;;;33.02;31.94;98281.41;5085808;28;20010;-86
2023/07/11 06:17:27;;;;;;;;;;;;;;;33.04;31.53;98276.78;5088865;28;19920;-86
2023/07/11 06:19:53;;;;;;;;;;;;;;;33.02;30.61;98270.81;5075377;28;19931;-87
2023/07/11 06:22:19;;;;;;;;;;;;;;;33.18;30.63;98275.22;5088295;28;19924;-87
2023/07/11 06:24:47;;;;;;;;;;;;;;;32.61;32.34;98266.13;5093343;28;19920;-88
2023/07/11 06:27:14;;;;;;;;;;;;;;;33.70;30.56;98264.94;5089646;28;19916;-89
2023/07/11 06:29:40;;;;;;;;;;;;;;;34.05;29.25;98266.47;5092208;28;19924;-87
2023/07/11 06:32:06;;;;;;;;;;;;;;;34.40;29.09;98262.78;5092529;28;19923;-86
2023/07/11 06:34:32;;;;;;;;;;;;;;;34.29;29.53;98268.31;5071097;28;20299;-85
2023/07/11 06:36:58;;;;;;;;;;;;;;;34.74;29.14;98261.88;5084292;28;20360;-88
2023/07/11 06:39:25;;;;;;;;;;;;;;;34.23;29.38;98268.25;5087344;28;19920;-90
2023/07/11 06:41:51;;;;;;;;;;;;;;;33.47;30.12;98266.59;5081370;28;20376;-88
2023/07/11 06:44:17;;;;;;;;;;;;;;;33.75;29.53;98272.78;5086102;28;19928;-88
2023/07/11 06:46:43;;;;;;;;;;;;;;;33.11;30.80;98273.56;5066139;28;19968;-85
2023/07/11 06:49:09;;;;;;;;;;;;;;;33.41;30.56;98260.06;5071790;28;20348;-87
2023/07/11 06:51:35;;;;;;;;;;;;;;;32.84;31.14;98270.19;5092147;28;20034;-88
2023/07/11 06:54:01;;;;;;;;;;;;;;;32.60;32.61;98258.88;5081332;28;19959;-91
2023/07/11 06:56:28;;;;;;;;;;;;;;;33.26;30.46;98257.22;5078455;28;19985;-88
2023/07/11 06:58:54;;;;;;;;;;;;;;;33.57;30.06;98262.41;5090777;28;19928;-88
2023/07/11 07:01:22;;;;;;;;;;;;;;;33.76;29.85;98251.53;5064445;28;20015;-91
2023/07/11 07:03:49;;;;;;;;;;;;;;;34.82;28.33;98253.66;5083330;28;19965;-89
2023/07/11 07:06:16;;;;;;;;;;;;;;;34.63;28.15;98256.06;5083790;28;19959;-89
2023/07/11 07:08:42;;;;;;;;;;;;;;;35.26;28.43;98254.88;5074137;28;20265;-91
2023/07/11 07:11:08;;;;;;;;;;;;;;;34.72;28.48;98255.88;5079003;28;19952;-90
2023/07/11 07:13:35;;;;;;;;;;;;;;;34.45;28.49;98248.56;5076469;28;19974;-89
2023/07/11 07:16:04;;;;;;;;;;;;;;;33.58;29.53;98260.34;5091697;28;19920;-92
2023/07/11 07:18:32;;;;;;;;;;;;;;;33.41;29.48;98243.75;5088157;28;19960;-90
2023/07/11 07:20:58;;;;;;;;;;;;;;;33.26;29.34;98256.44;5087044;28;19921;-92
2023/07/11 07:23:28;;;;;;;;;;;;;;;33.13;29.88;98248.22;5092775;28;20390;-90
2023/07/11 07:25:55;;;;;;;;;;;;;;;33.45;30.09;98254.94;5067111;28;20023;-89
2023/07/11 07:28:21;;;;;;;;;;;;;;;34.92;28.19;98252.16;5088068;28;19969;-89
2023/07/11 07:30:48;;;;;;;;;;;;;;;35.00;28.17;98251.22;5083458;28;20011;-88
2023/07/11 07:33:14;;;;;;;;;;;;;;;34.25;29.25;98245.75;5078719;28;20288;-87
2023/07/11 07:35:41;;;;;;;;;;;;;;;33.48;29.55;98256.00;5077218;28;19920;-89
2023/07/11 07:38:07;;;;;;;;;;;;;;;33.16;30.31;98252.16;5077565;28;19961;-89
2023/07/11 07:40:34;;;;;;;;;;;;;;;33.83;29.12;98248.28;5078444;28;19928;-91
2023/07/11 07:43:00;;;;;;;;;;;;;;;33.18;30.16;98260.97;5073839;28;20344;-91
2023/07/11 07:45:26;;;;;;;;;;;;;;;33.87;29.05;98257.38;5068443;28;19931;-88
2023/07/11 07:47:52;;;;;;;;;;;;;;;34.44;28.59;98255.56;5082539;28;20029;-88
2023/07/11 07:50:19;;;;;;;;;;;;;;;34.66;27.74;98255.81;5075556;28;19928;-87
2023/07/11 07:52:48;;;;;;;;;;;;;;;34.06;28.17;98241.63;5075164;28;19921;-91
2023/07/11 07:55:14;;;;;;;;;;;;;;;34.57;28.46;98255.97;5077785;28;19927;-92
2023/07/11 07:57:40;;;;;;;;;;;;;;;33.80;29.14;98244.34;5090538;28;19920;-88
2023/07/11 08:00:06;;;;;;;;;;;;;;;33.48;28.62;98238.94;5079620;28;19920;-87
2023/07/11 08:02:32;;;;;;;;;;;;;;;33.89;28.31;98246.28;5080675;28;19916;-89
2023/07/11 08:04:58;;;;;;;;;;;;;;;33.53;28.10;98246.81;5083354;28;19971;-87
2023/07/11 08:07:25;;;;;;;;;;;;;;;34.05;28.38;98254.31;5086368;28;20464;-90
2023/07/11 08:09:52;;;;;;;;;;;;;;;34.68;27.06;98252.47;5075053;28;20260;-89
2023/07/11 08:12:18;;;;;;;;;;;;;;;35.01;27.45;98257.72;5089762;28;19935;-92
2023/07/11 08:14:45;;;;;;;;;;;;;;;34.51;26.64;98257.97;5086969;28;20007;-86
2023/07/11 08:17:11;;;;;;;;;;;;;;;33.91;28.11;98263.69;5083306;28;19999;-87
2023/07/11 08:19:37;;;;;;;;;;;;;;;33.97;27.76;98253.13;5083985;28;19928;-86
2023/07/11 08:22:04;;;;;;;;;;;;;;;33.10;29.15;98263.44;5078666;28;19935;-85
2023/07/11 08:24:30;;;;;;;;;;;;;;;33.22;28.77;98262.34;5069481;28;20283;-86
2023/07/11 08:26:56;;;;;;;;;;;;;;;33.49;28.58;98257.59;5088803;28;20382;-88
2023/07/11 08:29:22;;;;;;;;;;;;;;;33.97;27.61;98255.97;5080235;28;20296;-87
2023/07/11 08:31:48;;;;;;;;;;;;;;;33.90;27.64;98257.19;5082148;28;20277;-87
2023/07/11 08:34:15;;;;;;;;;;;;;;;33.88;28.10;98259.75;5078202;28;19920;-87
2023/07/11 08:36:41;;;;;;;;;;;;;;;34.26;27.02;98260.78;5086452;28;19916;-87
2023/07/11 08:39:07;;;;;;;;;;;;;;;34.86;25.92;98252.13;5091235;28;20260;-85
2023/07/11 08:41:33;;;;;;;;;;;;;;;34.97;25.85;98260.78;5077947;28;19925;-88
2023/07/11 08:44:03;;;;;;;;;;;;;;;34.10;27.29;98259.28;5082904;28;20291;-88
2023/07/11 08:46:33;;;;;;;;;;;;;;;33.76;27.23;98265.78;5079558;28;19920;-86
2023/07/11 08:49:00;;;;;;;;;;;;;;;34.54;26.21;98256.22;5075684;28;19928;-86
2023/07/11 08:51:34;;;;;;;;;;;;;;;34.04;26.66;98253.53;5074223;28;19943;-87
2023/07/11 08:54:22;;;;;;;;;;;;;;;34.45;26.66;98254.25;5081878;28;19920;-87
2023/07/11 08:56:49;;;;;;;;;;;;;;;34.78;26.16;98258.78;5079289;28;19921;-86
2023/07/11 08:59:33;;;;;;;;;;;;;;;35.34;24.79;98252.31;5074765;28;19920;-86
2023/07/11 09:02:02;;;;;;;;;;;;;;;34.68;25.82;98252.47;5077458;28;19924;-84
2023/07/11 09:04:29;;;;;;;;;;;;;;;33.72;26.83;98250.97;5085487;28;20033;-85
2023/07/11 09:06:57;;;;;;;;;;;;;;;34.23;25.95;98258.94;5079434;28;19990;-85
2023/07/11 09:09:24;;;;;;;;;;;;;;;35.09;25.32;98261.72;5078811;28;19926;-86
2023/07/11 09:12:04;;;;;;;;;;;;;;;34.83;25.44;98260.91;5078964;28;19931;-87
2023/07/11 09:14:39;;;;;;;;;;;;;;;34.96;25.06;98247.03;5078407;28;19927;-90
2023/07/11 09:17:09;;;;;;;;;;;;;;;35.46;25.30;98256.81;5078789;28;19924;-87
2023/07/11 09:19:54;;;;;;;;;;;;;;;34.58;25.65;98254.72;5067417;28;19920;-85
2023/07/11 09:22:46;;;;;;;;;;;;;;;36.19;24.38;98260.94;5092490;28;20462;-87
2023/07/11 09:25:23;;;;;;;;;;;;;;;35.87;24.03;98255.28;5082392;28;19916;-89
2023/07/11 09:27:52;;;;;;;;;;;;;;;35.05;24.59;98266.88;5077119;28;19920;-84
2023/07/11 09:30:23;;;;;;;;;;;;;;;34.32;25.78;98261.63;5085910;28;19932;-85
2023/07/11 09:32:49;;;;;;;;;;;;;;;35.14;24.66;98261.75;5087152;28;19920;-85
2023/07/11 09:35:24;;;;;;;;;;;;;;;35.22;23.53;98262.84;5079277;28;20015;-88
2023/07/11 09:37:53;;;;;;;;;;;;;;;34.83;24.33;98269.47;5076992;28;19920;-86
2023/07/11 09:40:34;;;;;;;;;;;;;;;35.53;22.97;98256.38;5077752;28;19924;-86
2023/07/11 09:43:00;;;;;;;;;;;;;;;36.10;23.10;98264.00;5085060;28;19928;-84
2023/07/11 09:45:34;;;;;;;;;;;;;;;35.71;22.92;98266.63;5079336;28;19945;-86
2023/07/11 09:48:04;;;;;;;;;;;;;;;33.74;24.80;98243.50;5082531;28;20396;-88
2023/07/11 09:50:33;;;;;;;;;;;;;;;35.63;24.41;98260.59;5088818;28;19920;-88
2023/07/11 09:53:00;;;;;;;;;;;;;;;36.24;23.34;98254.47;5078013;28;19920;-89
2023/07/11 09:55:34;;;;;;;;;;;;;;;35.09;24.23;98265.34;5079811;28;19920;-86
2023/07/11 09:58:01;;;;;;;;;;;;;;;35.66;23.45;98256.72;5091268;28;19923;-87
2023/07/11 10:00:28;;;;;;;;;;;;;;;36.80;22.19;98253.34;5082553;28;20007;-87
2023/07/11 10:02:56;;;;;;;;;;;;;;;36.47;21.69;98264.72;5078140;28;19927;-85
2023/07/11 10:05:23;;;;;;;;;;;;;;;37.10;21.57;98256.53;5081676;28;19987;-86
2023/07/11 10:08:00;;;;;;;;;;;;;;;36.43;21.27;98259.19;5081364;28;19928;-86
2023/07/11 10:10:25;;;;;;;;;;;;;;;35.87;23.00;98265.94;5066983;28;19920;-88
2023/07/11 10:12:52;;;;;;;;;;;;;;;35.62;23.12;98275.38;5087879;28;19927;-85
2023/07/11 10:15:18;;;;;;;;;;;;;;;36.14;22.34;98265.34;5089246;28;19934;-87
2023/07/11 10:17:44;;;;;;;;;;;;;;;35.95;22.65;98278.44;5089402;28;20005;-85
2023/07/11 10:20:17;;;;;;;;;;;;;;;36.05;22.11;98274.91;5081146;28;20038;-89
2023/07/11 10:22:46;;;;;;;;;;;;;;;36.39;21.49;98263.59;5084653;28;20418;-89
2023/07/11 10:25:27;;;;;;;;;;;;;;;35.74;23.05;98266.38;5083095;28;20533;-87
2023/07/11 10:28:16;;;;;;;;;;;;;;;35.98;21.68;98280.31;5083223;28;19935;-88
2023/07/11 10:30:43;;;;;;;;;;;;;;;36.16;21.70;98267.66;5068354;28;20298;-86
2023/07/11 10:33:21;;;;;;;;;;;;;;;37.33;21.38;98267.47;5073395;28;20456;-88
2023/07/11 10:36:02;;;;;;;;;;;;;;;38.48;20.84;98258.38;5090102;27;19947;-93
2023/07/11 10:38:48;;;;;;;;;;;;;;;38.51;19.58;98266.69;5076063;28;19921;-87
2023/07/11 10:41:18;;;;;;;;;;;;;;;36.78;21.66;98267.41;5081598;28;20070;-87
2023/07/11 10:43:44;;;;;;;;;;;;;;;36.36;21.69;98262.53;5071568;28;19924;-85
2023/07/11 10:46:23;;;;;;;;;;;;;;;36.05;22.44;98266.34;5072228;28;19927;-86
2023/07/11 10:48:52;;;;;;;;;;;;;;;36.55;22.19;98260.81;5072139;28;20330;-86
2023/07/11 10:51:24;;;;;;;;;;;;;;;36.28;21.84;98252.91;5077213;28;20339;-89
2023/07/11 10:53:56;;;;;;;;;;;;;;;35.61;23.00;98263.19;5079463;28;19921;-85
2023/07/11 10:56:28;;;;;;;;;;;;;;;36.24;22.24;98266.69;5079552;28;19925;-86
2023/07/11 10:58:55;;;;;;;;;;;;;;;36.73;21.64;98253.84;5072473;28;20421;-84
2023/07/11 11:01:24;;;;;;;;;;;;;;;37.08;21.64;98253.41;5106055;28;19921;-84
2023/07/11 11:03:55;;;;;;;;;;;;;;;37.34;20.63;98253.94;5077211;28;19928;-86
2023/07/11 11:06:45;;;;;;;;;;;;;;;35.92;22.40;98260.25;5074681;28;19928;-86
2023/07/11 11:09:21;;;;;;;;;;;;;;;36.76;21.85;98247.06;5074163;28;20014;-87
2023/07/11 11:11:51;;;;;;;;;;;;;;;36.79;21.82;98256.72;5076062;28;19956;-87
2023/07/11 11:14:35;;;;;;;;;;;;;;;36.52;21.13;98249.66;5069420;28;20741;-87
2023/07/11 11:17:07;;;;;;;;;;;;;;;37.53;20.23;98248.47;5077577;28;19928;-89
2023/07/11 11:19:42;;;;;;;;;;;;;;;38.23;20.45;98239.44;5078403;28;19916;-86
2023/07/11 11:22:14;;;;;;;;;;;;;;;38.18;19.62;98243.88;5077600;28;19921;-85
2023/07/11 11:24:47;;;;;;;;;;;;;;;38.47;19.48;98248.19;5083117;28;20670;-89
2023/07/11 11:27:13;;;;;;;;;;;;;;;38.18;19.81;98252.50;5072851;28;19947;-86
2023/07/11 11:29:53;;;;;;;;;;;;;;;37.31;21.60;98249.25;5079550;28;20340;-85
2023/07/11 11:32:31;;;;;;;;;;;;;;;37.69;20.58;98248.44;5077422;28;19950;-86
2023/07/11 11:34:57;;;;;;;;;;;;;;;38.07;20.50;98249.66;5081144;28;20072;-87
2023/07/11 11:37:26;;;;;;;;;;;;;;;36.91;21.87;98256.25;5080540;28;20395;-87
2023/07/11 11:39:55;;;;;;;;;;;;;;;38.16;20.15;98255.09;5078790;28;20438;-88
2023/07/11 11:42:23;;;;;;;;;;;;;;;37.91;20.59;98239.81;5082110;28;19920;-89
2023/07/11 11:44:53;;;;;;;;;;;;;;;36.78;21.40;98253.09;5078237;28;19927;-89
2023/07/11 11:47:20;;;;;;;;;;;;;;;36.85;21.27;98252.59;5062195;28;19960;-88
2023/07/11 11:49:47;;;;;;;;;;;;;;;36.29;22.10;98254.50;5061398;28;19920;-88
2023/07/11 11:52:13;;;;;;;;;;;;;;;37.35;21.13;98246.88;5064259;28;19921;-87
2023/07/11 11:54:46;;;;;;;;;;;;;;;37.64;20.77;98234.13;5061794;28;19921;-85
2023/07/11 11:57:19;;;;;;;;;;;;;;;38.32;19.23;98237.06;5059939;28;20770;-86
2023/07/11 11:59:45;;;;;;;;;;;;;;;38.79;20.14;98242.84;5065662;28;19928;-86
2023/07/11 12:02:16;;;;;;;;;;;;;;;38.74;19.71;98235.03;5064738;28;19921;-86
2023/07/11 12:04:56;;;;;;;;;;;;;;;38.53;19.62;98241.09;5063646;28;21672;-84
2023/07/11 12:07:41;;;;;;;;;;;;;;;37.70;20.63;98227.06;5065909;28;19956;-84
2023/07/11 12:10:12;;;;;;;;;;;;;;;38.26;20.64;98244.09;5064630;28;19927;-84
2023/07/11 12:12:38;;;;;;;;;;;;;;;38.41;19.52;98242.50;5071709;28;19946;-83
2023/07/11 12:15:10;;;;;;;;;;;;;;;38.58;19.85;98233.81;5066066;28;20373;-86
2023/07/11 12:17:39;;;;;;;;;;;;;;;39.37;18.64;98242.09;5058577;28;19970;-85
2023/07/11 12:20:05;;;;;;;;;;;;;;;39.59;19.84;98235.41;5060793;28;19960;-86
2023/07/11 12:22:51;;;;;;;;;;;;;;;39.22;19.87;98243.81;5060098;28;20004;-86
2023/07/11 12:25:25;;;;;;;;;;;;;;;38.90;19.59;98243.53;5065824;28;19943;-86
2023/07/11 12:27:51;;;;;;;;;;;;;;;39.07;18.86;98247.03;5069267;28;20473;-86
2023/07/11 12:30:25;;;;;;;;;;;;;;;39.52;18.85;98240.94;5074963;28;19934;-87
2023/07/11 12:32:54;;;;;;;;;;;;;;;39.68;19.07;98229.28;5071604;28;19921;-87
2023/07/11 12:35:20;;;;;;;;;;;;;;;38.96;19.48;98238.50;5061397;28;19928;-87
2023/07/11 12:37:52;;;;;;;;;;;;;;;39.25;18.38;98205.41;5059381;28;19920;-87
2023/07/11 12:40:31;;;;;;;;;;;;;;;38.97;19.27;98224.94;5065942;28;20307;-86
2023/07/11 12:42:59;;;;;;;;;;;;;;;37.66;20.40;98232.28;5060209;28;19927;-89
2023/07/11 12:45:36;;;;;;;;;;;;;;;37.91;20.16;98242.66;5061134;28;19921;-86
2023/07/11 12:48:08;;;;;;;;;;;;;;;38.07;20.42;98238.19;5063003;28;19925;-84
2023/07/11 12:50:44;;;;;;;;;;;;;;;38.32;19.54;98231.34;5053088;28;20380;-84
2023/07/11 12:53:11;;;;;;;;;;;;;;;37.56;20.43;98245.31;5060247;28;19939;-83
2023/07/11 12:55:37;;;;;;;;;;;;;;;38.16;19.69;98240.75;5059533;28;19929;-83